Airfield :
LOGIN :

Register | Disclaimer

   EN    FR    IT 

 










Legend :    VFR   Marginal VFR   IFR   Intensive IFR   Very Intensive IFR
Visi :
Ceiling :
>= 8 km
>= 3000ft
5 to 8 km
1000 to 3000 ft
1500m to 5 km
500 to 1000 ft
800 to 1500m
200 to 500 ft
< 800m
< 200 ft
Symbols :   Thunderstorms  Fog  Heavy snow  Heavy precipitations  Wind > 20 kt
SIGMETs :     Misc.  Thunderstorms  Icing  Turbulence  Mountain Waves  Volcanic Ashes







- Airport Elevation : 84 ft
- Download approach charts


LFBC - Cazaux

CURRENT METAR :
  • 181230Z AUTO 22004KT 180V280 CAVOK 20/10 Q1015 NOSIG

EXPIRED METARs :
  • 181200Z AUTO 20004KT 120V260 CAVOK 21/11 Q1015 NOSIG
  • 181130Z AUTO 19004KT 160V230 CAVOK 20/12 Q1015 BECMG 30010KT
  • 181100Z AUTO 23004KT 190V260 CAVOK 19/12 Q1015 TEMPO 13010KT
  • 181030Z AUTO 17005KT 150V210 CAVOK 19/12 Q1015 BECMG 30010KT
  • 181000Z AUTO 18005KT 140V210 CAVOK 18/12 Q1014 NOSIG

TAF TAF LFBC
Valid from the 18 at 09:00 until the 19 at 09:00 UTC


180800Z 1809/1909 13010KT CAVOK
BECMG 1812/1814 30010KT
No reported NOTAMs for that airfield.
2 SIGMETs reported for the Bordeaux FIR (LFBB) :
 
Severe turbulence
LFBB SIGMET 3 VALID 181300/181700 LFPW
LFBB BORDEAUX FIR/UIR SEV TURB FCST WI N4445 E00245 - N4300 E00230 - N4245 E00215 - N4345 E00100 - N4445 E00245 SFC/FL060 STNR NC=
Severe turbulence
LFBB SIGMET 2 VALID 180900/181300 LFPW
LFBB BORDEAUX FIR/UIR SEV TURB FCST WI N4430 E00245 - N4300 E00230 - N4245 E00215 - N4330 E00100 - N4430 E00245 SFC/FL060 STNR NC=



MET'MAP, your aeronautical weather chart ! - Copyright ORBIFLY December 2007 - Disclaimer

ORBIFLY MET'MAP TEAM :

Programming & Development : Alexandra Zaïnal
Concept & Development : Baudouin d'Aumeries
Co-Development & Prog : Marc-Olivier Méhu
Technical & hardware support : Manuel Goepfert

Contact : metmap@orbifly.com




SOURCES & CREDITS :

   NOAA